createdAt,value
2024-04-25T00:00:31.102Z,18.63
2024-04-25T00:02:57.724Z,22.35
2024-04-25T00:05:24.454Z,23.52
2024-04-25T00:07:51.002Z,20.98
2024-04-25T00:10:17.598Z,21.85
2024-04-25T00:12:44.122Z,22.42
2024-04-25T00:15:11.961Z,20.00
2024-04-25T00:17:38.528Z,20.90
2024-04-25T00:20:05.632Z,22.75
2024-04-25T00:22:32.286Z,19.60
2024-04-25T00:24:58.815Z,18.70
2024-04-25T00:27:25.400Z,20.27
2024-04-25T00:29:51.974Z,18.63
2024-04-25T00:32:18.560Z,20.77
2024-04-25T00:34:45.141Z,20.98
2024-04-25T00:37:12.944Z,20.85
2024-04-25T00:39:39.491Z,23.50
2024-04-25T00:42:06.317Z,18.77
2024-04-25T00:44:32.867Z,21.55
2024-04-25T00:47:00.048Z,20.55
2024-04-25T00:49:26.745Z,22.67
2024-04-25T00:51:53.268Z,20.63
2024-04-25T00:54:19.804Z,21.95
2024-04-25T00:56:46.870Z,24.90
2024-04-25T00:59:14.263Z,19.85
2024-04-25T01:01:43.468Z,20.25
2024-04-25T01:04:10.979Z,19.92
2024-04-25T01:06:38.629Z,20.50
2024-04-25T01:09:05.188Z,20.15
2024-04-25T01:11:34.371Z,22.35
2024-04-25T01:14:01.518Z,22.85
2024-04-25T01:16:28.160Z,22.50
2024-04-25T01:18:54.784Z,24.13
2024-04-25T01:21:21.421Z,19.20
2024-04-25T01:23:51.619Z,20.23
2024-04-25T01:26:18.485Z,20.85
2024-04-25T01:28:45.304Z,21.48
2024-04-25T01:31:12.469Z,20.90
2024-04-25T01:33:39.666Z,20.77
2024-04-25T01:36:06.710Z,21.38
2024-04-25T01:38:33.325Z,17.95
2024-04-25T01:40:59.938Z,17.17
2024-04-25T01:43:26.490Z,18.95
2024-04-25T01:45:53.141Z,16.38
2024-04-25T01:48:19.853Z,19.13
2024-04-25T01:50:46.630Z,18.42
2024-04-25T01:53:13.276Z,18.90
2024-04-25T01:55:39.876Z,17.88
2024-04-25T01:58:06.465Z,18.23
2024-04-25T02:00:33.300Z,17.02
2024-04-25T02:03:00.030Z,20.52
2024-04-25T02:05:26.788Z,16.98
2024-04-25T02:07:53.420Z,17.85
2024-04-25T02:10:19.979Z,19.35
2024-04-25T02:12:46.578Z,21.48
2024-04-25T02:15:13.313Z,15.45
2024-04-25T02:17:41.282Z,18.85
2024-04-25T02:20:28.992Z,18.13
2024-04-25T02:23:16.237Z,16.73
2024-04-25T02:25:42.854Z,16.02
2024-04-25T02:28:09.439Z,20.55
2024-04-25T02:30:35.981Z,16.83
2024-04-25T02:33:02.619Z,16.17
2024-04-25T02:35:29.361Z,16.20
2024-04-25T02:37:55.986Z,18.33
2024-04-25T02:40:22.597Z,17.58
2024-04-25T02:42:49.189Z,17.65
2024-04-25T02:45:15.862Z,16.92
2024-04-25T02:47:42.665Z,17.83
2024-04-25T02:50:11.786Z,17.98
2024-04-25T02:52:39.518Z,18.00
2024-04-25T02:55:06.548Z,17.60
2024-04-25T02:57:33.138Z,17.13
2024-04-25T02:59:59.736Z,14.27
2024-04-25T03:02:27.950Z,16.52
2024-04-25T03:04:54.613Z,15.50
2024-04-25T03:07:22.785Z,13.65
2024-04-25T03:09:49.360Z,14.32
2024-04-25T03:12:15.943Z,15.60
2024-04-25T03:14:42.597Z,13.15
2024-04-25T03:17:10.758Z,12.98
2024-04-25T03:19:37.352Z,13.55
2024-04-25T03:22:03.920Z,15.40
2024-04-25T03:24:30.525Z,11.45
2024-04-25T03:26:57.139Z,11.88
2024-04-25T03:29:23.735Z,13.15
2024-04-25T03:31:51.673Z,11.32
2024-04-25T03:34:18.313Z,10.75
2024-04-25T03:36:45.848Z,12.45
2024-04-25T03:39:14.139Z,9.65
2024-04-25T03:41:41.485Z,9.57
2024-04-25T03:44:08.156Z,10.57
2024-04-25T03:46:36.210Z,8.13
2024-04-25T03:49:04.243Z,10.35
2024-04-25T03:51:31.261Z,13.70
2024-04-25T03:53:57.787Z,10.15
2024-04-25T03:56:24.419Z,11.07
2024-04-25T03:58:51.247Z,9.27
2024-04-25T04:01:17.869Z,9.48
2024-04-25T04:03:44.475Z,12.35
2024-04-25T04:06:11.149Z,8.73
2024-04-25T04:08:37.999Z,9.90
2024-04-25T04:11:04.991Z,10.90
2024-04-25T04:13:33.150Z,10.10
2024-04-25T04:15:59.712Z,10.18
2024-04-25T04:18:26.306Z,7.13
2024-04-25T04:20:52.968Z,9.73
2024-04-25T04:23:19.644Z,6.88
2024-04-25T04:25:46.800Z,8.10
2024-04-25T04:28:15.510Z,7.88
2024-04-25T04:30:42.964Z,6.90
2024-04-25T04:33:09.796Z,8.20
2024-04-25T04:35:36.542Z,6.60
2024-04-25T04:38:03.155Z,8.68
2024-04-25T04:40:29.735Z,7.97
2024-04-25T04:42:56.319Z,9.65
2024-04-25T04:45:22.910Z,8.05
2024-04-25T04:47:49.578Z,8.15
2024-04-25T04:50:20.313Z,8.85
2024-04-25T04:55:13.977Z,6.68
2024-04-25T04:57:40.566Z,7.35
2024-04-25T05:00:08.618Z,6.55
2024-04-25T05:02:36.502Z,6.22
2024-04-25T05:05:03.395Z,7.13
2024-04-25T05:07:32.246Z,7.18
2024-04-25T05:09:58.778Z,6.20
2024-04-25T05:12:28.076Z,6.50
2024-04-25T05:14:55.811Z,6.97
2024-04-25T05:17:22.379Z,7.97
2024-04-25T05:19:48.937Z,7.70
2024-04-25T05:22:15.451Z,6.50
2024-04-25T05:24:41.973Z,6.40
2024-04-25T05:27:08.607Z,7.93
2024-04-25T05:29:36.019Z,8.60
2024-04-25T05:32:03.584Z,9.30
2024-04-25T05:34:30.250Z,5.70
2024-04-25T05:36:56.867Z,7.53
2024-04-25T05:39:23.485Z,5.93
2024-04-25T05:41:53.278Z,6.22
2024-04-25T05:44:19.982Z,7.38
2024-04-25T05:46:46.618Z,7.20
2024-04-25T05:49:13.459Z,5.60
2024-04-25T05:51:40.030Z,6.07
2024-04-25T05:54:06.638Z,5.70
2024-04-25T05:56:33.214Z,7.43
2024-04-25T05:58:59.801Z,8.93
2024-04-25T06:01:26.394Z,6.40
2024-04-25T06:03:53.295Z,6.40
2024-04-25T06:06:19.953Z,5.20
2024-04-25T06:08:46.607Z,5.07
2024-04-25T06:11:13.525Z,6.38
2024-04-25T06:13:40.294Z,8.88
2024-04-25T06:16:07.466Z,7.15
2024-04-25T06:18:34.202Z,6.88
2024-04-25T06:21:00.845Z,6.15
2024-04-25T06:23:27.858Z,8.65
2024-04-25T06:25:54.452Z,8.05
2024-04-25T06:28:21.109Z,7.65
2024-04-25T06:30:47.663Z,7.28
2024-04-25T06:33:14.441Z,6.60
2024-04-25T06:35:41.092Z,7.68
2024-04-25T06:38:09.492Z,6.90
2024-04-25T06:40:36.043Z,5.75
2024-04-25T06:43:02.617Z,5.30
2024-04-25T06:45:29.238Z,7.28
2024-04-25T06:47:55.941Z,8.57
2024-04-25T06:50:22.692Z,6.18
2024-04-25T06:52:49.356Z,7.47
2024-04-25T06:55:16.195Z,6.47
2024-04-25T06:57:42.821Z,5.97
2024-04-25T07:00:09.888Z,7.80
2024-04-25T07:02:40.930Z,7.25
2024-04-25T07:05:26.109Z,7.72
2024-04-25T07:07:57.365Z,5.78
2024-04-25T07:10:24.787Z,7.75
2024-04-25T07:12:51.638Z,5.13
2024-04-25T07:15:22.110Z,6.80
2024-04-25T07:17:49.296Z,4.72
2024-04-25T07:20:16.071Z,6.38
2024-04-25T07:23:00.729Z,6.20
2024-04-25T07:25:33.694Z,6.85
2024-04-25T07:28:17.239Z,5.53
2024-04-25T07:30:46.174Z,7.05
2024-04-25T07:33:13.632Z,5.88
2024-04-25T07:35:40.362Z,5.57
2024-04-25T07:38:07.227Z,6.18
2024-04-25T07:40:39.005Z,6.03
2024-04-25T07:43:06.522Z,7.80
2024-04-25T07:45:33.948Z,5.88
2024-04-25T07:48:00.775Z,6.95
2024-04-25T07:50:27.533Z,5.47
2024-04-25T07:52:54.139Z,6.07
2024-04-25T07:55:20.983Z,6.15
2024-04-25T07:57:47.579Z,6.70
2024-04-25T08:00:15.623Z,7.00
2024-04-25T08:02:43.502Z,5.13
2024-04-25T08:05:11.466Z,5.43
2024-04-25T08:07:40.948Z,5.72
2024-04-25T08:10:08.865Z,7.43
2024-04-25T08:12:36.071Z,7.07
2024-04-25T08:15:02.795Z,5.68
2024-04-25T08:17:29.452Z,5.75
2024-04-25T08:19:56.212Z,6.22
2024-04-25T08:22:25.694Z,5.97
2024-04-25T08:24:53.664Z,6.50
2024-04-25T08:27:20.580Z,5.38
2024-04-25T08:29:47.425Z,4.72
2024-04-25T08:32:14.047Z,4.38
2024-04-25T08:34:40.673Z,3.85
2024-04-25T08:37:07.308Z,6.60
2024-04-25T08:39:33.979Z,5.10
2024-04-25T08:42:01.465Z,6.25
2024-04-25T08:44:28.129Z,4.03
2024-04-25T08:46:56.009Z,5.22
2024-04-25T08:49:25.981Z,6.78
2024-04-25T08:51:53.464Z,7.30
2024-04-25T08:54:22.868Z,4.13
2024-04-25T08:56:49.655Z,5.18
2024-04-25T08:59:16.411Z,5.78
2024-04-25T09:01:46.652Z,5.72
2024-04-25T09:04:17.719Z,3.78
2024-04-25T09:06:46.816Z,4.93
2024-04-25T09:09:13.445Z,3.88
2024-04-25T09:11:41.899Z,4.63
2024-04-25T09:14:11.759Z,4.97
2024-04-25T09:16:38.687Z,5.68
2024-04-25T09:19:05.685Z,3.88
2024-04-25T09:21:32.216Z,3.67
2024-04-25T09:23:59.275Z,3.67
2024-04-25T09:26:31.903Z,3.22
2024-04-25T09:29:00.344Z,4.13
2024-04-25T09:31:27.453Z,3.58
2024-04-25T09:34:00.115Z,3.78
2024-04-25T09:36:26.852Z,3.90
2024-04-25T09:38:53.461Z,3.83
2024-04-25T09:41:21.254Z,3.08
2024-04-25T09:43:48.712Z,3.42
2024-04-25T09:46:21.399Z,4.70
2024-04-25T09:48:55.049Z,3.95
2024-04-25T09:51:42.787Z,2.10
2024-04-25T09:54:16.519Z,3.10
2024-04-25T09:56:45.012Z,3.10
2024-04-25T09:59:45.953Z,4.85
2024-04-25T10:02:22.350Z,2.58
2024-04-25T10:04:49.773Z,3.22
2024-04-25T10:07:28.202Z,1.88
2024-04-25T10:12:35.666Z,2.70
2024-04-25T10:15:04.305Z,1.50
2024-04-25T10:17:33.704Z,2.38
2024-04-25T10:20:01.540Z,2.15
2024-04-25T10:22:29.469Z,1.60
2024-04-25T10:25:01.850Z,2.00
2024-04-25T10:27:30.048Z,3.08
2024-04-25T10:30:08.069Z,1.50
2024-04-25T10:32:36.470Z,1.70
2024-04-25T10:35:03.815Z,2.28
2024-04-25T10:37:36.978Z,2.03
2024-04-25T10:40:03.786Z,1.40
2024-04-25T10:42:30.465Z,1.33
2024-04-25T10:44:58.355Z,1.33
2024-04-25T10:47:30.719Z,1.50
2024-04-25T10:49:59.372Z,3.08
2024-04-25T10:52:27.252Z,2.45
2024-04-25T10:54:53.887Z,1.98
2024-04-25T10:57:20.438Z,1.90
2024-04-25T10:59:47.204Z,2.47
2024-04-25T11:02:13.967Z,3.30
2024-04-25T11:04:42.931Z,3.97
2024-04-25T11:07:11.879Z,3.63
2024-04-25T11:09:38.611Z,3.83
2024-04-25T11:12:08.258Z,5.55
2024-04-25T11:14:38.452Z,4.47
2024-04-25T11:17:07.958Z,4.30
2024-04-25T11:19:43.263Z,4.30
2024-04-25T11:22:25.700Z,3.95
2024-04-25T11:25:13.611Z,4.45
2024-04-25T11:27:40.673Z,4.22
2024-04-25T11:30:07.973Z,4.60
2024-04-25T11:32:37.966Z,5.30
2024-04-25T11:35:10.544Z,3.55
2024-04-25T11:37:41.489Z,4.20
2024-04-25T11:40:09.754Z,4.10
2024-04-25T11:42:41.530Z,3.92
2024-04-25T11:45:08.263Z,3.08
2024-04-25T11:47:35.659Z,3.67
2024-04-25T11:50:02.352Z,4.15
2024-04-25T11:52:30.228Z,3.05
2024-04-25T11:54:58.091Z,3.55
2024-04-25T11:57:28.633Z,3.40
2024-04-25T12:02:24.044Z,3.10
2024-04-25T12:04:50.702Z,3.03
2024-04-25T12:07:17.308Z,2.92
2024-04-25T12:09:43.907Z,2.17
2024-04-25T12:12:10.558Z,2.58
2024-04-25T12:14:37.230Z,2.15
2024-04-25T12:17:07.232Z,3.65
2024-04-25T12:19:34.145Z,2.88
2024-04-25T12:22:01.945Z,2.33
2024-04-25T12:24:28.555Z,2.88
2024-04-25T12:26:55.669Z,1.80
2024-04-25T12:29:22.872Z,2.17
2024-04-25T12:31:50.919Z,7.07
2024-04-25T12:34:18.215Z,3.10
2024-04-25T12:36:46.165Z,2.08
2024-04-25T12:39:14.871Z,2.65
2024-04-25T12:41:44.234Z,3.60
2024-04-25T12:44:10.915Z,2.05
2024-04-25T12:46:37.568Z,2.65
2024-04-25T12:49:04.292Z,3.97
2024-04-25T12:51:30.939Z,2.75
2024-04-25T12:53:57.672Z,2.58
2024-04-25T12:56:24.445Z,2.10
2024-04-25T12:58:51.051Z,2.30
2024-04-25T13:01:18.627Z,2.50
2024-04-25T13:03:48.234Z,1.95
2024-04-25T13:06:17.088Z,2.35
2024-04-25T13:08:44.730Z,2.28
2024-04-25T13:11:13.400Z,2.78
2024-04-25T13:13:40.224Z,2.83
2024-04-25T13:16:06.874Z,2.15
2024-04-25T13:18:34.065Z,1.42
2024-04-25T13:21:03.562Z,2.70
2024-04-25T13:23:30.825Z,0.80
2024-04-25T13:25:57.428Z,1.08
2024-04-25T13:28:24.011Z,1.20
2024-04-25T13:30:50.588Z,0.88
2024-04-25T13:33:18.989Z,1.77
2024-04-25T13:35:46.248Z,0.88
2024-04-25T13:38:13.025Z,1.88
2024-04-25T13:40:39.670Z,1.92
2024-04-25T13:43:06.350Z,1.33
2024-04-25T13:45:33.441Z,2.25
2024-04-25T13:48:00.555Z,1.05
2024-04-25T13:50:28.839Z,1.48
2024-04-25T13:52:55.561Z,0.90
2024-04-25T13:55:24.430Z,1.63
2024-04-25T13:57:51.667Z,1.70
2024-04-25T14:00:19.256Z,1.10
2024-04-25T14:02:46.770Z,1.38
2024-04-25T14:05:16.121Z,1.92
2024-04-25T14:07:43.240Z,2.00
2024-04-25T14:10:09.986Z,1.48
2024-04-25T14:12:36.630Z,1.95
2024-04-25T14:15:03.875Z,1.48
2024-04-25T14:17:30.564Z,3.20
2024-04-25T14:19:59.130Z,2.00
2024-04-25T14:22:29.320Z,2.25
2024-04-25T14:25:01.526Z,1.60
2024-04-25T14:27:48.154Z,2.63
2024-04-25T14:30:15.818Z,1.92
2024-04-25T14:32:42.515Z,2.60
2024-04-25T14:35:09.503Z,1.63
2024-04-25T14:37:36.123Z,1.67
2024-04-25T14:40:02.734Z,1.65
2024-04-25T14:42:29.352Z,2.00
2024-04-25T14:44:55.957Z,1.63
2024-04-25T14:47:25.505Z,1.42
2024-04-25T14:49:52.845Z,2.55
2024-04-25T14:52:19.392Z,2.00
2024-04-25T14:54:47.366Z,1.55
2024-04-25T14:57:15.412Z,3.22
2024-04-25T14:59:42.699Z,2.55
2024-04-25T15:02:10.215Z,2.40
2024-04-25T15:04:37.493Z,2.08
2024-04-25T15:07:04.347Z,3.50
2024-04-25T15:09:30.914Z,2.90
2024-04-25T15:12:07.233Z,3.42
2024-04-25T15:14:37.636Z,3.30
2024-04-25T15:17:08.307Z,3.25
2024-04-25T15:19:40.733Z,2.75
2024-04-25T15:22:11.924Z,2.50
2024-04-25T15:24:39.228Z,2.50
2024-04-25T15:27:10.616Z,3.08
2024-04-25T15:29:37.296Z,3.30
2024-04-25T15:32:04.035Z,2.60
2024-04-25T15:34:32.530Z,5.95
2024-04-25T15:36:59.128Z,3.63
2024-04-25T15:39:28.650Z,3.00
2024-04-25T15:41:55.290Z,3.10
2024-04-25T15:44:23.130Z,3.50
2024-04-25T15:46:49.684Z,2.47
2024-04-25T15:49:16.636Z,3.30
2024-04-25T15:51:43.477Z,4.00
2024-04-25T15:54:10.163Z,3.97
2024-04-25T15:56:36.730Z,4.43
2024-04-25T15:59:03.360Z,4.18
2024-04-25T16:01:30.112Z,3.67
2024-04-25T16:03:56.722Z,3.30
2024-04-25T16:06:23.774Z,4.20
2024-04-25T16:08:53.347Z,6.18
2024-04-25T16:11:20.110Z,4.40
2024-04-25T16:13:49.349Z,3.97
2024-04-25T16:16:20.700Z,3.78
2024-04-25T16:18:51.328Z,3.05
2024-04-25T16:21:20.551Z,3.97
2024-04-25T16:23:49.687Z,3.83
2024-04-25T16:26:19.357Z,3.63
2024-04-25T16:28:46.064Z,2.92
2024-04-25T16:31:12.927Z,4.07
2024-04-25T16:33:42.238Z,3.63
2024-04-25T16:36:15.769Z,3.92
2024-04-25T16:38:44.301Z,3.45
2024-04-25T16:41:10.941Z,4.35
2024-04-25T16:43:37.650Z,3.35
2024-04-25T16:46:06.895Z,3.78
2024-04-25T16:48:33.709Z,2.80
2024-04-25T16:51:00.488Z,3.13
2024-04-25T16:53:27.215Z,2.65
2024-04-25T16:55:53.813Z,3.53
2024-04-25T16:58:20.442Z,4.75
2024-04-25T17:00:47.074Z,2.58
2024-04-25T17:03:14.235Z,2.58
2024-04-25T17:05:40.962Z,2.95
2024-04-25T17:08:08.210Z,2.78
2024-04-25T17:10:35.083Z,3.50
2024-04-25T17:13:01.726Z,2.17
2024-04-25T17:15:28.317Z,3.55
2024-04-25T17:17:55.120Z,3.35
2024-04-25T17:20:21.823Z,3.38
2024-04-25T17:22:48.576Z,3.80
2024-04-25T17:25:15.204Z,2.78
2024-04-25T17:27:42.863Z,4.03
2024-04-25T17:30:10.654Z,3.40
2024-04-25T17:32:37.474Z,3.30
2024-04-25T17:35:06.107Z,2.97
2024-04-25T17:37:34.523Z,3.45
2024-04-25T17:40:01.663Z,3.13
2024-04-25T17:42:28.244Z,3.10
2024-04-25T17:44:56.364Z,4.35
2024-04-25T17:47:23.672Z,3.55
2024-04-25T17:49:50.345Z,3.25
2024-04-25T17:52:17.367Z,3.65
2024-04-25T17:54:44.338Z,3.50
2024-04-25T17:57:11.160Z,4.57
2024-04-25T17:59:38.273Z,4.25
2024-04-25T18:02:05.828Z,2.65
2024-04-25T18:04:34.872Z,4.47
2024-04-25T18:07:02.959Z,3.50
2024-04-25T18:09:29.916Z,2.78
2024-04-25T18:11:56.892Z,2.63
2024-04-25T18:14:24.582Z,2.90
2024-04-25T18:17:02.376Z,2.65
2024-04-25T18:22:14.447Z,1.73
2024-04-25T18:24:41.936Z,1.13
2024-04-25T18:27:12.645Z,1.10
2024-04-25T18:32:11.436Z,1.73
2024-04-25T18:34:41.343Z,1.83
2024-04-25T18:37:09.811Z,1.52
2024-04-25T18:39:36.679Z,2.60
2024-04-25T18:42:06.237Z,1.90
2024-04-25T18:44:37.192Z,1.67
2024-04-25T18:47:04.439Z,1.10
2024-04-25T18:49:32.323Z,1.80
2024-04-25T18:52:00.414Z,0.75
2024-04-25T18:54:29.618Z,1.95
2024-04-25T18:56:56.201Z,1.92
2024-04-25T18:59:24.112Z,0.90
2024-04-25T19:01:51.981Z,0.47
2024-04-25T19:04:21.825Z,1.63
2024-04-25T19:06:52.958Z,0.80
2024-04-25T19:09:20.751Z,1.65
2024-04-25T19:11:48.201Z,0.95
2024-04-25T19:14:15.419Z,0.98
2024-04-25T19:16:43.084Z,0.57
2024-04-25T19:19:16.402Z,1.20
2024-04-25T19:21:49.806Z,1.10
2024-04-25T19:24:18.081Z,0.60
2024-04-25T19:26:45.903Z,1.77
2024-04-25T19:29:16.925Z,1.58
2024-04-25T19:31:45.562Z,0.70
2024-04-25T19:34:24.625Z,0.77
2024-04-25T19:36:52.590Z,1.77
2024-04-25T19:39:19.517Z,0.70
2024-04-25T19:41:49.057Z,1.20
2024-04-25T19:44:16.431Z,1.38
2024-04-25T19:46:43.464Z,1.50
2024-04-25T19:49:10.191Z,0.60
2024-04-25T19:51:41.709Z,1.20
2024-04-25T19:54:08.419Z,2.35
2024-04-25T19:56:35.097Z,1.27
2024-04-25T19:59:01.694Z,1.98
2024-04-25T20:01:28.269Z,1.20
2024-04-25T20:03:54.845Z,1.20
2024-04-25T20:06:25.315Z,1.92
2024-04-25T20:08:52.339Z,1.48
2024-04-25T20:11:21.840Z,1.15
2024-04-25T20:13:48.597Z,1.50
2024-04-25T20:16:19.456Z,1.48
2024-04-25T20:19:15.387Z,1.00
2024-04-25T20:21:44.665Z,1.55
2024-04-25T20:24:11.543Z,1.48
2024-04-25T20:26:38.208Z,1.60
2024-04-25T20:29:05.534Z,1.25
2024-04-25T20:31:32.206Z,1.23
2024-04-25T20:33:58.884Z,0.68
2024-04-25T20:36:25.550Z,0.80
2024-04-25T20:38:55.417Z,1.15
2024-04-25T20:41:23.670Z,0.93
2024-04-25T20:43:54.421Z,1.42
2024-04-25T20:46:24.910Z,1.55
2024-04-25T20:48:52.815Z,1.23
2024-04-25T20:51:20.505Z,1.33
2024-04-25T20:53:47.314Z,0.63
2024-04-25T20:56:13.984Z,1.50
2024-04-25T20:58:41.311Z,1.38
2024-04-25T21:01:08.098Z,2.58
2024-04-25T21:03:34.909Z,1.30
2024-04-25T21:06:01.664Z,1.77
2024-04-25T21:08:30.822Z,1.00
2024-04-25T21:10:57.664Z,1.10
2024-04-25T21:13:28.696Z,3.28
2024-04-25T21:15:55.353Z,1.40
2024-04-25T21:18:22.136Z,1.25
2024-04-25T21:20:50.131Z,1.20
2024-04-25T21:23:17.065Z,1.83
2024-04-25T21:25:50.996Z,2.55
2024-04-25T21:28:20.947Z,1.85
2024-04-25T21:30:47.727Z,1.45
2024-04-25T21:33:14.605Z,3.15
2024-04-25T21:35:42.517Z,2.83
2024-04-25T21:38:10.131Z,2.13
2024-04-25T21:40:37.209Z,2.45
2024-04-25T21:43:05.391Z,1.70
2024-04-25T21:45:32.000Z,2.90
2024-04-25T21:47:58.731Z,3.05
2024-04-25T21:50:25.469Z,2.13
2024-04-25T21:52:53.327Z,2.60
2024-04-25T21:55:20.015Z,2.38
2024-04-25T21:57:46.606Z,3.85
2024-04-25T22:00:14.346Z,3.15
2024-04-25T22:02:41.051Z,2.38
2024-04-25T22:05:07.719Z,1.80
2024-04-25T22:07:34.434Z,3.30
2024-04-25T22:10:01.032Z,2.33
2024-04-25T22:12:29.353Z,1.83
2024-04-25T22:14:56.679Z,1.92
2024-04-25T22:17:23.389Z,2.42
2024-04-25T22:19:50.275Z,1.77
2024-04-25T22:22:17.265Z,2.28
2024-04-25T22:24:44.485Z,1.15
2024-04-25T22:27:12.371Z,2.83
2024-04-25T22:29:39.182Z,3.53
2024-04-25T22:32:06.103Z,2.63
2024-04-25T22:34:33.076Z,2.10
2024-04-25T22:36:59.707Z,2.65
2024-04-25T22:39:34.571Z,1.95
2024-04-25T22:42:01.347Z,1.90
2024-04-25T22:44:27.965Z,1.45
2024-04-25T22:46:55.863Z,1.65
2024-04-25T22:49:23.898Z,1.52
2024-04-25T22:51:50.543Z,2.60
2024-04-25T22:54:18.307Z,1.85
2024-04-25T22:56:45.002Z,1.75
2024-04-25T22:59:11.600Z,2.60
2024-04-25T23:01:40.159Z,1.92
2024-04-25T23:04:06.880Z,1.95
2024-04-25T23:06:33.497Z,1.52
2024-04-25T23:09:01.509Z,2.72
2024-04-25T23:11:28.412Z,2.15
2024-04-25T23:13:55.022Z,1.30
2024-04-25T23:16:21.762Z,2.40
2024-04-25T23:18:48.593Z,2.10
2024-04-25T23:21:15.650Z,3.40
2024-04-25T23:23:42.376Z,1.58
2024-04-25T23:26:08.971Z,2.35
2024-04-25T23:28:35.598Z,3.15
2024-04-25T23:31:02.451Z,1.80
2024-04-25T23:33:30.416Z,1.80
2024-04-25T23:35:57.206Z,3.13
2024-04-25T23:38:23.855Z,4.32
2024-04-25T23:40:50.975Z,2.25
2024-04-25T23:43:17.974Z,4.07
2024-04-25T23:45:44.587Z,3.15
2024-04-25T23:48:12.587Z,5.50
2024-04-25T23:50:39.247Z,3.17
2024-04-25T23:53:05.806Z,2.83
2024-04-25T23:55:32.388Z,2.60
2024-04-25T23:57:59.184Z,3.63
